createdAt,value
2019-01-14T00:01:27.733Z,26.73
2019-01-14T00:03:56.436Z,28.97
2019-01-14T00:06:25.159Z,27.20
2019-01-14T00:08:53.822Z,26.27
2019-01-14T00:11:22.493Z,25.63
2019-01-14T00:13:51.174Z,21.20
2019-01-14T00:16:19.812Z,24.80
2019-01-14T00:18:48.469Z,23.63
2019-01-14T00:21:17.172Z,26.50
2019-01-14T00:23:45.794Z,21.30
2019-01-14T00:26:14.484Z,22.10
2019-01-14T00:28:43.213Z,22.10
2019-01-14T00:31:11.883Z,24.70
2019-01-14T00:33:41.404Z,22.17
2019-01-14T00:36:17.258Z,20.70
2019-01-14T00:38:40.380Z,22.23
2019-01-14T00:41:09.079Z,22.00
2019-01-14T00:43:37.716Z,19.83
2019-01-14T00:46:06.372Z,19.37
2019-01-14T00:48:35.034Z,16.97
2019-01-14T00:51:03.722Z,18.07
2019-01-14T00:53:33.928Z,18.10
2019-01-14T00:56:02.626Z,17.17
2019-01-14T00:58:31.372Z,17.33
2019-01-14T01:01:00.025Z,18.73
2019-01-14T01:03:28.720Z,18.37
2019-01-14T01:05:57.376Z,17.47
2019-01-14T01:08:26.012Z,15.90
2019-01-14T01:10:54.673Z,17.23
2019-01-14T01:13:23.388Z,17.73
2019-01-14T01:15:52.045Z,20.10
2019-01-14T01:18:20.794Z,18.60
2019-01-14T01:20:49.678Z,15.17
2019-01-14T01:23:19.663Z,17.73
2019-01-14T01:25:49.200Z,21.90
2019-01-14T01:28:17.856Z,18.90
2019-01-14T01:30:56.837Z,20.83
2019-01-14T01:33:25.518Z,19.07
2019-01-14T01:35:54.293Z,19.57
2019-01-14T01:38:22.917Z,20.87
2019-01-14T01:40:51.565Z,18.77
2019-01-14T01:43:20.319Z,18.63
2019-01-14T01:45:48.971Z,18.90
2019-01-14T01:48:17.675Z,21.60
2019-01-14T01:50:46.357Z,17.53
2019-01-14T01:53:15.000Z,17.23
2019-01-14T01:55:43.689Z,17.17
2019-01-14T01:58:12.344Z,18.75
2019-01-14T02:00:41.388Z,18.80
2019-01-14T02:03:10.037Z,17.13
2019-01-14T02:05:38.704Z,20.27
2019-01-14T02:08:07.399Z,18.13
2019-01-14T02:10:36.077Z,16.23
2019-01-14T02:13:04.746Z,19.13
2019-01-14T02:15:33.391Z,15.83
2019-01-14T02:18:02.241Z,19.50
2019-01-14T02:20:30.898Z,16.47
2019-01-14T02:23:02.570Z,16.53
2019-01-14T02:25:31.239Z,17.00
2019-01-14T02:27:59.876Z,20.10
2019-01-14T02:30:28.573Z,15.97
2019-01-14T02:32:57.219Z,17.03
2019-01-14T02:35:25.887Z,15.83
2019-01-14T02:37:54.588Z,14.20
2019-01-14T02:40:23.197Z,15.93
2019-01-14T02:42:51.865Z,14.67
2019-01-14T02:45:20.509Z,18.70
2019-01-14T02:47:54.179Z,14.57
2019-01-14T02:50:24.431Z,13.57
2019-01-14T02:52:53.094Z,14.50
2019-01-14T02:55:21.795Z,15.70
2019-01-14T02:57:50.460Z,13.70
2019-01-14T03:00:24.080Z,15.15
2019-01-14T03:02:52.755Z,15.63
2019-01-14T03:05:21.453Z,11.90
2019-01-14T03:07:51.047Z,14.20
2019-01-14T03:10:19.691Z,14.50
2019-01-14T03:12:48.343Z,14.63
2019-01-14T03:15:17.932Z,10.37
2019-01-14T03:17:46.671Z,13.60
2019-01-14T03:20:16.542Z,11.97
2019-01-14T03:22:45.172Z,12.03
2019-01-14T03:25:14.214Z,13.67
2019-01-14T03:27:42.864Z,12.53
2019-01-14T03:30:15.196Z,11.17
2019-01-14T03:32:43.832Z,9.97
2019-01-14T03:35:12.459Z,10.53
2019-01-14T03:37:41.127Z,9.23
2019-01-14T03:40:14.391Z,10.50
2019-01-14T03:42:43.017Z,10.23
2019-01-14T03:45:12.467Z,9.63
2019-01-14T03:47:41.119Z,8.70
2019-01-14T03:50:12.832Z,10.43
2019-01-14T03:52:41.472Z,7.67
2019-01-14T03:55:10.167Z,9.83
2019-01-14T03:57:38.830Z,8.97
2019-01-14T04:00:13.337Z,10.50
2019-01-14T04:02:41.964Z,8.90
2019-01-14T04:05:10.931Z,11.67
2019-01-14T04:07:39.598Z,9.73
2019-01-14T04:10:15.888Z,8.87
2019-01-14T04:12:44.544Z,9.57
2019-01-14T04:15:15.450Z,8.53
2019-01-14T04:17:44.625Z,7.50
2019-01-14T04:20:16.412Z,8.43
2019-01-14T04:22:45.078Z,5.93
2019-01-14T04:25:13.682Z,9.17
2019-01-14T04:27:42.293Z,10.57
2019-01-14T04:30:19.487Z,7.50
2019-01-14T04:32:48.144Z,9.13
2019-01-14T04:35:17.028Z,10.07
2019-01-14T04:37:45.677Z,9.67
2019-01-14T04:40:17.248Z,10.10
2019-01-14T04:42:45.643Z,13.77
2019-01-14T04:45:17.314Z,13.13
2019-01-14T04:47:47.319Z,18.13
2019-01-14T04:50:17.888Z,17.37
2019-01-14T04:52:46.589Z,23.13
2019-01-14T04:55:15.290Z,20.50
2019-01-14T04:57:43.956Z,23.37
2019-01-14T05:00:18.151Z,26.03
2019-01-14T05:02:46.827Z,25.57
2019-01-14T05:05:15.664Z,22.97
2019-01-14T05:07:44.314Z,25.70
2019-01-14T05:10:16.109Z,23.03
2019-01-14T05:12:44.756Z,23.23
2019-01-14T05:15:13.489Z,20.67
2019-01-14T05:17:42.188Z,15.97
2019-01-14T05:20:22.304Z,15.93
2019-01-14T05:22:51.836Z,13.20
2019-01-14T05:25:20.530Z,16.47
2019-01-14T05:27:49.233Z,12.90
2019-01-14T05:30:19.379Z,23.57
2019-01-14T05:32:49.171Z,13.43
2019-01-14T05:35:17.820Z,12.83
2019-01-14T05:37:48.892Z,15.23
2019-01-14T05:40:23.840Z,15.13
2019-01-14T05:42:54.210Z,13.10
2019-01-14T05:45:22.871Z,12.97
2019-01-14T05:47:51.520Z,13.87
2019-01-14T05:50:20.188Z,13.40
2019-01-14T05:53:03.122Z,13.00
2019-01-14T05:55:37.674Z,11.30
2019-01-14T05:58:06.346Z,10.57
2019-01-14T06:00:40.382Z,13.40
2019-01-14T06:03:09.023Z,11.33
2019-01-14T06:05:37.776Z,13.47
2019-01-14T06:08:06.439Z,13.80
2019-01-14T06:10:35.097Z,15.63
2019-01-14T06:13:03.738Z,10.97
2019-01-14T06:15:32.473Z,12.83
2019-01-14T06:18:01.165Z,10.20
2019-01-14T06:20:30.961Z,12.83
2019-01-14T06:22:59.603Z,14.43
2019-01-14T06:25:28.426Z,10.23
2019-01-14T06:27:58.148Z,11.70
2019-01-14T06:30:32.266Z,11.50
2019-01-14T06:33:01.120Z,11.70
2019-01-14T06:35:29.756Z,11.13
2019-01-14T06:37:58.447Z,14.83
2019-01-14T06:40:27.280Z,12.33
2019-01-14T06:42:55.931Z,13.73
2019-01-14T06:45:33.187Z,11.73
2019-01-14T06:48:00.756Z,14.10
2019-01-14T06:50:29.415Z,12.10
2019-01-14T06:52:58.128Z,14.17
2019-01-14T06:55:26.832Z,14.13
2019-01-14T06:57:57.892Z,12.90
2019-01-14T07:00:26.673Z,12.40
2019-01-14T07:02:55.416Z,13.90
2019-01-14T07:05:24.061Z,13.07
2019-01-14T07:08:17.125Z,15.70
2019-01-14T07:10:26.450Z,13.53
2019-01-14T07:12:55.123Z,16.00
2019-01-14T07:15:24.029Z,15.17
2019-01-14T07:17:55.788Z,14.33
2019-01-14T07:20:24.451Z,14.63
2019-01-14T07:22:54.723Z,14.67
2019-01-14T07:25:23.419Z,12.57
2019-01-14T07:27:55.087Z,12.97
2019-01-14T07:30:23.811Z,15.53
2019-01-14T07:32:57.063Z,18.63
2019-01-14T07:35:28.616Z,16.90
2019-01-14T07:37:57.235Z,17.00
2019-01-14T07:40:25.964Z,18.63
2019-01-14T07:42:54.594Z,18.53
2019-01-14T07:45:24.278Z,16.80
2019-01-14T07:47:53.016Z,15.43
2019-01-14T07:50:21.901Z,15.67
2019-01-14T07:52:53.604Z,20.23
2019-01-14T07:55:26.722Z,20.23
2019-01-14T07:58:00.391Z,17.17
2019-01-14T08:00:29.092Z,19.83
2019-01-14T08:03:04.599Z,22.60
2019-01-14T08:05:33.262Z,18.80
2019-01-14T08:08:01.944Z,20.07
2019-01-14T08:10:30.713Z,21.93
2019-01-14T08:12:59.398Z,25.07
2019-01-14T08:15:28.082Z,26.83
2019-01-14T08:17:58.549Z,21.30
2019-01-14T08:20:28.533Z,26.40
2019-01-14T08:22:57.211Z,24.57
2019-01-14T08:25:25.926Z,23.83
2019-01-14T08:27:54.580Z,20.87
2019-01-14T08:30:23.270Z,27.23
2019-01-14T08:32:52.044Z,25.10
2019-01-14T08:35:20.753Z,24.93
2019-01-14T08:37:49.408Z,22.37
2019-01-14T08:40:24.251Z,26.47
2019-01-14T08:42:53.046Z,24.30
2019-01-14T08:45:21.746Z,26.97
2019-01-14T08:47:50.441Z,27.07
2019-01-14T08:50:19.780Z,23.80
2019-01-14T08:52:48.490Z,33.60
2019-01-14T08:55:17.135Z,25.67
2019-01-14T08:57:54.475Z,27.10
2019-01-14T09:00:20.080Z,23.77
2019-01-14T09:02:52.942Z,26.70
2019-01-14T09:05:21.660Z,27.60
2019-01-14T09:07:50.294Z,27.10
2019-01-14T09:10:21.746Z,27.03
2019-01-14T09:12:50.524Z,25.80
2019-01-14T09:15:19.289Z,29.42
2019-01-14T09:17:48.045Z,24.03
2019-01-14T09:20:19.179Z,29.23
2019-01-14T09:22:48.930Z,25.80
2019-01-14T09:25:17.744Z,22.60
2019-01-14T09:27:52.270Z,29.50
2019-01-14T09:30:24.266Z,29.47
2019-01-14T09:32:54.585Z,26.90
2019-01-14T09:35:23.344Z,27.83
2019-01-14T09:37:52.147Z,28.80
2019-01-14T09:40:22.458Z,31.17
2019-01-14T09:42:52.738Z,23.77
2019-01-14T09:45:30.366Z,23.07
2019-01-14T09:47:59.074Z,27.67
2019-01-14T09:50:29.309Z,25.57
2019-01-14T09:52:59.600Z,27.43
2019-01-14T09:55:28.256Z,27.00
2019-01-14T09:57:56.955Z,27.50
2019-01-14T10:00:27.249Z,28.10
2019-01-14T10:02:56.874Z,32.73
2019-01-14T10:05:25.543Z,27.47
2019-01-14T10:07:54.211Z,28.57
2019-01-14T10:10:22.921Z,33.60
2019-01-14T10:12:53.923Z,35.00
2019-01-14T10:15:23.738Z,28.73
2019-01-14T10:17:58.094Z,31.83
2019-01-14T10:20:32.593Z,30.63
2019-01-14T10:23:01.257Z,31.93
2019-01-14T10:25:30.136Z,32.53
2019-01-14T10:27:58.903Z,35.53
2019-01-14T10:30:27.602Z,36.07
2019-01-14T10:32:57.382Z,36.47
2019-01-14T10:35:28.500Z,36.20
2019-01-14T10:38:00.142Z,36.13
2019-01-14T10:40:28.841Z,34.90
2019-01-14T10:42:57.624Z,34.20
2019-01-14T10:45:26.314Z,29.93
2019-01-14T10:47:56.601Z,30.37
2019-01-14T10:50:28.007Z,31.17
2019-01-14T10:52:57.000Z,28.90
2019-01-14T10:55:25.732Z,30.00
2019-01-14T10:57:55.808Z,27.90
2019-01-14T11:00:27.914Z,34.03
2019-01-14T11:02:56.759Z,31.17
2019-01-14T11:05:27.699Z,29.60
2019-01-14T11:08:10.589Z,30.53
2019-01-14T11:10:43.042Z,33.70
2019-01-14T11:16:12.318Z,31.47
2019-01-14T11:18:47.036Z,30.08
2019-01-14T11:21:15.689Z,29.83
2019-01-14T11:23:44.487Z,28.60
2019-01-14T11:26:13.466Z,31.97
2019-01-14T11:28:42.131Z,28.20
2019-01-14T11:31:10.787Z,30.67
2019-01-14T11:33:40.036Z,27.43
2019-01-14T11:36:08.701Z,28.93
2019-01-14T11:38:46.255Z,27.03
2019-01-14T11:41:15.105Z,33.57
2019-01-14T11:43:43.777Z,28.00
2019-01-14T11:46:12.473Z,29.40
2019-01-14T11:48:41.191Z,28.10
2019-01-14T11:51:09.869Z,28.40
2019-01-14T11:53:38.593Z,29.13
2019-01-14T11:56:07.241Z,30.20
2019-01-14T11:58:35.873Z,30.27
2019-01-14T12:01:04.495Z,29.07
2019-01-14T12:03:33.189Z,28.43
2019-01-14T12:06:01.857Z,33.07
2019-01-14T12:08:30.547Z,29.10
2019-01-14T12:10:59.217Z,27.57
2019-01-14T12:13:27.880Z,35.30
2019-01-14T12:15:56.579Z,29.67
2019-01-14T12:18:25.195Z,27.50
2019-01-14T12:20:53.848Z,27.17
2019-01-14T12:23:22.539Z,34.75
2019-01-14T12:25:51.206Z,28.70
2019-01-14T12:28:19.848Z,29.07
2019-01-14T12:30:48.531Z,29.47
2019-01-14T12:33:17.214Z,29.97
2019-01-14T12:35:45.836Z,26.50
2019-01-14T12:38:14.507Z,23.87
2019-01-14T12:40:43.156Z,27.67
2019-01-14T12:43:11.829Z,25.80
2019-01-14T12:45:40.502Z,26.30
2019-01-14T12:48:09.184Z,28.90
2019-01-14T12:50:39.409Z,29.40
2019-01-14T12:53:08.081Z,26.77
2019-01-14T12:55:36.737Z,31.13
2019-01-14T12:58:05.414Z,30.00
2019-01-14T13:00:34.055Z,26.57
2019-01-14T13:03:02.815Z,25.30
2019-01-14T13:05:31.721Z,26.90
2019-01-14T13:08:00.384Z,26.63
2019-01-14T13:10:29.038Z,26.87
2019-01-14T13:12:57.682Z,31.93
2019-01-14T13:15:27.116Z,29.03
2019-01-14T13:17:55.848Z,26.67
2019-01-14T13:20:24.464Z,29.60
2019-01-14T13:22:53.119Z,26.73
2019-01-14T13:25:24.816Z,26.53
2019-01-14T13:27:53.505Z,27.77
2019-01-14T13:30:26.837Z,27.50
2019-01-14T13:32:56.564Z,25.17
2019-01-14T13:35:25.236Z,25.43
2019-01-14T13:37:53.921Z,26.93
2019-01-14T13:40:22.557Z,28.63
2019-01-14T13:42:51.215Z,26.70
2019-01-14T13:45:21.510Z,29.20
2019-01-14T13:47:50.119Z,23.83
2019-01-14T13:50:20.673Z,31.20
2019-01-14T13:52:49.276Z,26.03
2019-01-14T13:55:17.940Z,25.17
2019-01-14T13:57:46.600Z,27.73
2019-01-14T14:00:18.130Z,25.67
2019-01-14T14:02:46.782Z,26.93
2019-01-14T14:05:15.423Z,25.23
2019-01-14T14:07:44.142Z,24.77
2019-01-14T14:10:15.661Z,23.63
2019-01-14T14:12:45.589Z,26.35
2019-01-14T14:15:16.035Z,27.63
2019-01-14T14:17:44.708Z,23.27
2019-01-14T14:20:15.964Z,25.87
2019-01-14T14:22:44.637Z,23.33
2019-01-14T14:25:14.989Z,27.30
2019-01-14T14:27:43.642Z,24.87
2019-01-14T14:30:23.568Z,26.20
2019-01-14T14:32:52.241Z,24.90
2019-01-14T14:35:20.878Z,24.50
2019-01-14T14:37:49.542Z,29.00
2019-01-14T14:40:18.218Z,27.30
2019-01-14T14:42:46.900Z,29.30
2019-01-14T14:45:16.117Z,27.07
2019-01-14T14:47:44.736Z,23.17
2019-01-14T14:50:18.251Z,28.13
2019-01-14T14:52:50.246Z,22.03
2019-01-14T14:55:21.890Z,23.07
2019-01-14T14:57:50.536Z,27.33
2019-01-14T15:00:21.612Z,24.23
2019-01-14T15:02:50.192Z,25.73
2019-01-14T15:05:18.840Z,24.87
2019-01-14T15:07:49.108Z,27.53
2019-01-14T15:10:19.510Z,28.13
2019-01-14T15:12:48.161Z,29.53
2019-01-14T15:15:18.417Z,32.03
2019-01-14T15:17:47.087Z,31.17
2019-01-14T15:20:18.437Z,33.93
2019-01-14T15:22:47.152Z,37.57
2019-01-14T15:25:15.833Z,31.67
2019-01-14T15:27:44.487Z,27.73
2019-01-14T15:30:23.341Z,28.73
2019-01-14T15:32:52.056Z,27.67
2019-01-14T15:35:24.823Z,26.77
2019-01-14T15:37:53.485Z,26.73
2019-01-14T15:40:22.160Z,26.53
2019-01-14T15:42:51.720Z,25.67
2019-01-14T15:45:23.725Z,29.00
2019-01-14T15:47:53.932Z,24.47
2019-01-14T15:50:22.567Z,30.90
2019-01-14T15:52:51.373Z,25.97
2019-01-14T15:55:24.551Z,26.90
2019-01-14T15:58:04.934Z,27.67
2019-01-14T16:00:33.690Z,29.23
2019-01-14T16:03:02.346Z,29.30
2019-01-14T16:05:32.593Z,22.93
2019-01-14T16:08:01.260Z,24.07
2019-01-14T16:10:29.902Z,23.30
2019-01-14T16:12:58.606Z,23.80
2019-01-14T16:15:27.304Z,25.83
2019-01-14T16:17:56.096Z,23.77
2019-01-14T16:20:26.143Z,24.70
2019-01-14T16:23:00.464Z,27.90
2019-01-14T16:25:29.266Z,30.33
2019-01-14T16:27:57.960Z,29.10
2019-01-14T16:30:26.652Z,24.20
2019-01-14T16:32:57.442Z,25.80
2019-01-14T16:35:25.733Z,27.27
2019-01-14T16:37:55.958Z,30.85
2019-01-14T16:40:24.646Z,27.77
2019-01-14T16:42:53.340Z,23.63
2019-01-14T16:45:22.690Z,22.87
2019-01-14T16:47:51.365Z,26.60
2019-01-14T16:50:20.092Z,24.50
2019-01-14T16:52:48.788Z,27.43
2019-01-14T16:55:22.531Z,24.77
2019-01-14T16:57:49.418Z,26.13
2019-01-14T17:00:18.821Z,26.10
2019-01-14T17:02:47.504Z,25.53
2019-01-14T17:05:16.729Z,28.93
2019-01-14T17:07:50.973Z,31.13
2019-01-14T17:10:25.165Z,26.03
2019-01-14T17:12:51.593Z,28.20
2019-01-14T17:15:20.256Z,30.97
2019-01-14T17:17:49.137Z,25.07
2019-01-14T17:20:18.985Z,28.27
2019-01-14T17:22:47.669Z,26.57
2019-01-14T17:25:16.441Z,29.50
2019-01-14T17:27:46.207Z,28.73
2019-01-14T17:33:23.562Z,35.10
2019-01-14T17:35:52.231Z,28.93
2019-01-14T17:38:48.291Z,27.83
2019-01-14T17:41:13.464Z,27.83
2019-01-14T17:43:49.557Z,26.57
2019-01-14T18:02:49.260Z,24.90
2019-01-14T18:05:20.693Z,26.23
2019-01-14T18:08:21.398Z,31.43
2019-01-14T18:11:09.065Z,41.07
2019-01-14T18:13:40.369Z,24.60
2019-01-14T18:16:09.323Z,21.83
2019-01-14T18:18:40.750Z,21.73
2019-01-14T18:21:13.770Z,30.88
2019-01-14T18:23:41.817Z,26.13
2019-01-14T18:26:12.173Z,25.07
2019-01-14T18:28:40.881Z,24.90
2019-01-14T18:31:09.547Z,24.23
2019-01-14T18:33:38.208Z,24.33
2019-01-14T18:36:06.866Z,25.27
2019-01-14T18:38:35.585Z,27.00
2019-01-14T18:41:04.295Z,23.13
2019-01-14T18:43:33.121Z,27.00
2019-01-14T18:46:01.841Z,21.83
2019-01-14T18:48:30.549Z,24.80
2019-01-14T18:54:28.176Z,24.83
2019-01-14T18:56:56.921Z,25.83
2019-01-14T18:59:26.712Z,27.23
2019-01-14T19:01:55.558Z,23.63
2019-01-14T19:04:27.573Z,45.80
2019-01-14T19:09:56.889Z,24.53
2019-01-14T19:22:03.729Z,22.33
2019-01-14T19:25:14.815Z,23.07
2019-01-14T19:44:41.804Z,26.90
2019-01-14T19:47:16.164Z,21.07
2019-01-14T19:49:44.909Z,24.17
2019-01-14T19:52:13.574Z,26.13
2019-01-14T19:54:44.982Z,23.20
2019-01-14T19:57:19.617Z,21.80
2019-01-14T19:59:43.924Z,23.27
2019-01-14T20:02:12.650Z,23.97
2019-01-14T20:04:42.001Z,28.53
2019-01-14T20:07:12.270Z,33.90
2019-01-14T20:09:41.016Z,29.47
2019-01-14T20:12:09.764Z,22.23
2019-01-14T20:14:40.024Z,25.80
2019-01-14T20:17:08.678Z,24.20
2019-01-14T20:19:37.309Z,23.87
2019-01-14T20:22:08.688Z,22.30
2019-01-14T20:25:09.779Z,23.07
2019-01-14T20:30:37.825Z,22.40
2019-01-14T20:36:39.921Z,24.20
2019-01-14T20:39:22.767Z,21.97
2019-01-14T20:45:08.248Z,20.30
2019-01-14T20:47:36.965Z,20.83
2019-01-14T20:50:08.282Z,23.23
2019-01-14T20:52:36.931Z,19.20
2019-01-14T20:55:06.455Z,18.53
2019-01-14T20:57:35.113Z,17.47
2019-01-14T21:00:08.610Z,20.27
2019-01-14T21:02:37.204Z,22.87
2019-01-14T21:05:07.901Z,20.27
2019-01-14T21:07:36.623Z,20.10
2019-01-14T21:10:08.301Z,29.10
2019-01-14T21:12:39.428Z,21.73
2019-01-14T21:15:10.819Z,22.70
2019-01-14T21:17:39.564Z,18.43
2019-01-14T21:20:11.466Z,22.67
2019-01-14T21:22:40.103Z,20.67
2019-01-14T21:25:08.716Z,19.17
2019-01-14T21:27:37.382Z,21.60
2019-01-14T21:30:11.352Z,20.63
2019-01-14T21:32:39.699Z,17.57
2019-01-14T21:35:08.379Z,20.37
2019-01-14T21:37:37.134Z,19.93
2019-01-14T21:40:08.583Z,18.83
2019-01-14T21:42:37.348Z,16.43
2019-01-14T21:45:11.722Z,18.27
2019-01-14T21:47:40.419Z,19.10
2019-01-14T21:50:16.948Z,19.15
2019-01-14T21:52:45.661Z,19.23
2019-01-14T21:55:19.190Z,18.13
2019-01-14T21:57:47.892Z,25.37
2019-01-14T22:00:24.521Z,26.53
2019-01-14T22:02:53.244Z,18.80
2019-01-14T22:05:21.884Z,20.13
2019-01-14T22:07:50.754Z,23.70
2019-01-14T22:10:23.923Z,23.00
2019-01-14T22:12:52.654Z,20.23
2019-01-14T22:15:21.299Z,19.23
2019-01-14T22:17:49.950Z,21.37
2019-01-14T22:20:26.122Z,18.87
2019-01-14T22:22:54.833Z,17.57
2019-01-14T22:25:23.480Z,19.27
2019-01-14T22:27:52.225Z,39.93
2019-01-14T22:30:28.884Z,21.73
2019-01-14T22:32:57.560Z,22.00
2019-01-14T22:35:26.240Z,23.83
2019-01-14T22:37:55.804Z,22.40
2019-01-14T22:40:24.469Z,23.10
2019-01-14T22:42:53.148Z,19.03
2019-01-14T22:45:21.812Z,22.27
2019-01-14T22:47:50.467Z,24.43
2019-01-14T22:50:19.391Z,17.03
2019-01-14T22:52:48.072Z,19.07
2019-01-14T22:55:16.725Z,19.93
2019-01-14T22:57:45.544Z,21.43
2019-01-14T23:00:55.650Z,19.43
2019-01-14T23:03:24.331Z,19.53
2019-01-14T23:05:53.029Z,24.67
2019-01-14T23:08:21.733Z,18.60
2019-01-14T23:10:50.990Z,21.43
2019-01-14T23:13:19.645Z,20.67
2019-01-14T23:15:48.298Z,18.53
2019-01-14T23:18:17.037Z,21.37
2019-01-14T23:20:45.676Z,20.43
2019-01-14T23:23:14.382Z,27.57
2019-01-14T23:25:43.038Z,21.03
2019-01-14T23:28:11.689Z,23.13
2019-01-14T23:30:41.947Z,22.87
2019-01-14T23:33:10.596Z,20.53
2019-01-14T23:35:39.231Z,22.30
2019-01-14T23:38:07.879Z,23.83
2019-01-14T23:40:36.523Z,25.57
2019-01-14T23:43:05.242Z,22.27
2019-01-14T23:45:33.884Z,22.10
2019-01-14T23:48:02.515Z,23.90
2019-01-14T23:50:31.191Z,21.80
2019-01-14T23:52:59.842Z,24.97
2019-01-14T23:55:30.107Z,27.20
2019-01-14T23:57:58.727Z,23.53
